createdAt,value
2018-07-28T00:00:12.048Z,58.27
2018-07-28T00:01:12.158Z,58.75
2018-07-28T00:02:11.984Z,58.85
2018-07-28T00:03:11.946Z,59.04
2018-07-28T00:04:11.930Z,59.43
2018-07-28T00:05:11.889Z,59.72
2018-07-28T00:06:11.874Z,59.78
2018-07-28T00:07:12.036Z,59.69
2018-07-28T00:08:11.811Z,59.88
2018-07-28T00:09:11.768Z,59.88
2018-07-28T00:10:11.748Z,59.97
2018-07-28T00:11:11.724Z,60.27
2018-07-28T00:12:11.682Z,60.65
2018-07-28T00:13:11.638Z,60.84
2018-07-28T00:14:11.632Z,61.04
2018-07-28T00:15:11.587Z,61.61
2018-07-28T00:16:11.544Z,61.29
2018-07-28T00:17:11.590Z,61.10
2018-07-28T00:18:11.480Z,61.49
2018-07-28T00:19:11.456Z,61.29
2018-07-28T00:20:11.420Z,60.42
2018-07-28T00:21:11.383Z,60.52
2018-07-28T00:22:11.359Z,60.81
2018-07-28T00:23:11.334Z,61.29
2018-07-28T00:24:11.294Z,61.58
2018-07-28T00:25:11.277Z,62.16
2018-07-28T00:26:11.225Z,61.49
2018-07-28T00:27:11.216Z,60.91
2018-07-28T00:28:11.164Z,61.29
2018-07-28T00:29:11.145Z,61.39
2018-07-28T00:30:11.107Z,61.19
2018-07-28T00:31:11.075Z,61.00
2018-07-28T00:32:11.049Z,61.10
2018-07-28T00:33:11.005Z,61.49
2018-07-28T00:34:11.002Z,60.91
2018-07-28T00:35:10.972Z,61.29
2018-07-28T00:36:10.919Z,61.68
2018-07-28T00:37:10.887Z,61.97
2018-07-28T00:38:10.861Z,62.35
2018-07-28T00:39:10.837Z,62.16
2018-07-28T00:40:10.803Z,61.39
2018-07-28T00:41:10.761Z,61.49
2018-07-28T00:42:10.727Z,61.58
2018-07-28T00:43:10.716Z,61.58
2018-07-28T00:44:10.670Z,61.29
2018-07-28T00:45:10.644Z,61.68
2018-07-28T00:46:10.605Z,61.10
2018-07-28T00:47:10.736Z,61.49
2018-07-28T00:48:10.536Z,61.29
2018-07-28T00:49:10.508Z,61.00
2018-07-28T00:50:10.495Z,61.19
2018-07-28T00:51:10.451Z,61.10
2018-07-28T00:53:10.397Z,60.42
2018-07-28T00:54:10.350Z,60.81
2018-07-28T00:55:10.330Z,60.42
2018-07-28T00:56:10.291Z,60.72
2018-07-28T00:57:10.261Z,60.24
2018-07-28T00:58:10.228Z,60.81
2018-07-28T00:59:10.211Z,61.00
2018-07-28T01:00:10.158Z,61.10
2018-07-28T01:01:10.150Z,61.00
2018-07-28T01:02:10.097Z,61.29
2018-07-28T01:03:10.068Z,61.19
2018-07-28T01:04:10.039Z,61.19
2018-07-28T01:05:10.272Z,61.19
2018-07-28T01:06:09.973Z,61.39
2018-07-28T01:07:09.943Z,61.19
2018-07-28T01:08:09.904Z,61.49
2018-07-28T01:09:09.888Z,61.49
2018-07-28T01:10:10.308Z,61.29
2018-07-28T01:11:09.814Z,61.58
2018-07-28T01:12:09.803Z,61.49
2018-07-28T01:13:09.763Z,61.39
2018-07-28T01:14:09.724Z,61.10
2018-07-28T01:15:09.688Z,61.39
2018-07-28T01:16:09.654Z,61.49
2018-07-28T01:17:09.633Z,61.10
2018-07-28T01:18:09.596Z,61.49
2018-07-28T01:19:09.723Z,61.49
2018-07-28T01:20:09.520Z,61.29
2018-07-28T01:21:09.504Z,61.29
2018-07-28T01:22:09.456Z,61.10
2018-07-28T01:23:09.445Z,60.91
2018-07-28T01:24:09.410Z,60.81
2018-07-28T01:25:09.369Z,61.00
2018-07-28T01:26:09.350Z,60.62
2018-07-28T01:27:09.299Z,60.91
2018-07-28T01:28:09.278Z,61.10
2018-07-28T01:29:09.269Z,60.62
2018-07-28T01:30:09.354Z,61.29
2018-07-28T01:31:09.174Z,61.58
2018-07-28T01:32:09.157Z,61.68
2018-07-28T01:33:09.124Z,61.97
2018-07-28T01:34:09.086Z,61.97
2018-07-28T01:35:09.052Z,62.03
2018-07-28T01:36:09.214Z,62.23
2018-07-28T01:37:08.986Z,62.90
2018-07-28T01:38:08.959Z,62.71
2018-07-28T01:39:08.925Z,62.80
2018-07-28T01:40:08.902Z,62.68
2018-07-28T01:41:08.859Z,62.80
2018-07-28T01:42:08.829Z,63.09
2018-07-28T01:43:08.792Z,63.25
2018-07-28T01:44:08.765Z,62.87
2018-07-28T01:45:08.742Z,62.96
2018-07-28T01:46:08.725Z,63.35
2018-07-28T01:48:08.659Z,62.99
2018-07-28T01:49:08.630Z,62.96
2018-07-28T01:50:08.576Z,62.68
2018-07-28T01:51:08.546Z,62.87
2018-07-28T01:52:08.512Z,62.90
2018-07-28T01:53:08.474Z,62.90
2018-07-28T01:54:08.443Z,62.51
2018-07-28T01:55:08.419Z,62.77
2018-07-28T01:56:08.375Z,62.38
2018-07-28T01:57:08.365Z,62.77
2018-07-28T01:58:08.321Z,62.61
2018-07-28T01:59:08.281Z,62.87
2018-07-28T02:00:08.257Z,62.96
2018-07-28T02:01:08.219Z,63.09
2018-07-28T02:02:08.194Z,63.18
2018-07-28T02:03:08.202Z,62.96
2018-07-28T02:04:08.127Z,63.06
2018-07-28T02:05:08.087Z,63.06
2018-07-28T02:06:08.066Z,63.25
2018-07-28T02:07:08.035Z,63.15
2018-07-28T02:08:08.005Z,63.15
2018-07-28T02:09:08.257Z,63.25
2018-07-28T02:10:07.928Z,62.99
2018-07-28T02:11:07.908Z,62.87
2018-07-28T02:12:07.869Z,62.58
2018-07-28T02:13:07.836Z,63.09
2018-07-28T02:14:07.855Z,62.68
2018-07-28T02:15:07.878Z,62.77
2018-07-28T02:16:07.737Z,62.58
2018-07-28T02:17:07.708Z,62.58
2018-07-28T02:18:07.688Z,62.90
2018-07-28T02:19:07.793Z,62.23
2018-07-28T02:20:07.733Z,61.91
2018-07-28T02:21:07.586Z,62.32
2018-07-28T02:22:07.562Z,62.87
2018-07-28T02:23:07.515Z,62.58
2018-07-28T02:24:07.475Z,62.48
2018-07-28T02:25:07.451Z,62.58
2018-07-28T02:26:07.431Z,62.58
2018-07-28T02:27:07.390Z,62.96
2018-07-28T02:28:07.351Z,62.87
2018-07-28T02:29:07.322Z,62.96
2018-07-28T02:30:07.280Z,62.58
2018-07-28T02:31:07.264Z,62.38
2018-07-28T02:32:07.430Z,62.48
2018-07-28T02:33:07.241Z,62.96
2018-07-28T02:34:07.161Z,62.96
2018-07-28T02:35:07.271Z,62.58
2018-07-28T02:36:07.093Z,63.54
2018-07-28T02:37:07.067Z,63.83
2018-07-28T02:38:07.030Z,63.35
2018-07-28T02:39:07.000Z,63.83
2018-07-28T02:40:06.967Z,63.83
2018-07-28T02:41:07.088Z,64.02
2018-07-28T02:42:06.903Z,63.92
2018-07-28T02:43:06.887Z,64.22
2018-07-28T02:44:06.836Z,64.18
2018-07-28T02:45:06.799Z,64.18
2018-07-28T02:46:06.802Z,64.37
2018-07-28T02:47:06.739Z,64.85
2018-07-28T02:48:06.708Z,64.95
2018-07-28T02:49:06.678Z,64.85
2018-07-28T02:50:06.707Z,65.05
2018-07-28T02:51:06.616Z,64.95
2018-07-28T02:52:06.577Z,65.05
2018-07-28T02:53:06.540Z,64.76
2018-07-28T02:54:06.520Z,64.95
2018-07-28T02:55:06.494Z,65.05
2018-07-28T02:56:06.443Z,64.85
2018-07-28T02:57:06.421Z,65.62
2018-07-28T02:58:06.380Z,66.00
2018-07-28T02:59:06.367Z,66.20
2018-07-28T03:00:06.330Z,65.91
2018-07-28T03:01:06.423Z,66.20
2018-07-28T03:02:06.247Z,66.10
2018-07-28T03:03:06.228Z,65.91
2018-07-28T03:04:06.192Z,65.81
2018-07-28T03:05:06.163Z,65.81
2018-07-28T03:06:06.121Z,65.97
2018-07-28T03:07:06.108Z,65.91
2018-07-28T03:08:06.625Z,65.88
2018-07-28T03:09:06.042Z,65.97
2018-07-28T03:10:05.999Z,66.36
2018-07-28T03:11:05.962Z,66.49
2018-07-28T03:12:05.929Z,66.07
2018-07-28T03:13:05.907Z,66.46
2018-07-28T03:14:05.872Z,66.36
2018-07-28T03:15:05.881Z,66.46
2018-07-28T03:16:05.796Z,66.46
2018-07-28T03:17:05.783Z,66.36
2018-07-28T03:18:05.749Z,66.26
2018-07-28T03:19:05.706Z,66.16
2018-07-28T03:20:05.670Z,66.16
2018-07-28T03:21:05.642Z,66.46
2018-07-28T03:22:05.606Z,66.36
2018-07-28T03:23:05.568Z,66.46
2018-07-28T03:24:05.899Z,66.26
2018-07-28T03:25:05.505Z,66.55
2018-07-28T03:26:05.469Z,66.16
2018-07-28T03:27:05.435Z,66.07
2018-07-28T03:28:05.407Z,65.97
2018-07-28T03:29:05.375Z,65.69
2018-07-28T03:30:05.349Z,65.62
2018-07-28T03:31:05.311Z,65.43
2018-07-28T03:32:05.282Z,64.95
2018-07-28T03:33:05.244Z,65.23
2018-07-28T03:34:05.211Z,64.85
2018-07-28T03:35:05.474Z,65.14
2018-07-28T03:36:05.154Z,65.23
2018-07-28T03:37:05.111Z,65.43
2018-07-28T03:38:05.089Z,65.14
2018-07-28T03:39:05.045Z,65.14
2018-07-28T03:40:05.013Z,64.56
2018-07-28T03:41:05.287Z,64.85
2018-07-28T03:42:04.949Z,64.47
2018-07-28T03:43:05.034Z,64.85
2018-07-28T03:44:04.893Z,64.76
2018-07-28T03:45:04.855Z,64.37
2018-07-28T03:46:04.844Z,64.37
2018-07-28T03:47:05.101Z,64.56
2018-07-28T03:48:04.761Z,64.56
2018-07-28T03:49:04.715Z,64.31
2018-07-28T03:50:04.697Z,64.47
2018-07-28T03:51:04.661Z,64.47
2018-07-28T03:52:04.627Z,64.56
2018-07-28T03:53:04.587Z,64.76
2018-07-28T03:54:04.560Z,64.56
2018-07-28T03:55:04.522Z,65.23
2018-07-28T03:56:04.492Z,65.23
2018-07-28T03:57:04.456Z,65.40
2018-07-28T03:58:04.781Z,65.11
2018-07-28T03:59:04.395Z,65.69
2018-07-28T04:00:04.361Z,65.97
2018-07-28T04:01:04.328Z,65.69
2018-07-28T04:02:04.290Z,65.97
2018-07-28T04:03:04.273Z,66.33
2018-07-28T04:04:04.235Z,66.90
2018-07-28T04:05:04.198Z,66.90
2018-07-28T04:06:04.164Z,67.19
2018-07-28T04:07:04.147Z,67.00
2018-07-28T04:08:04.096Z,67.32
2018-07-28T04:09:04.064Z,67.03
2018-07-28T04:10:04.025Z,66.74
2018-07-28T04:11:04.006Z,67.00
2018-07-28T04:12:03.966Z,66.61
2018-07-28T04:13:03.935Z,66.74
2018-07-28T04:14:03.900Z,65.88
2018-07-28T04:15:03.871Z,66.07
2018-07-28T04:16:03.833Z,66.16
2018-07-28T04:17:03.820Z,66.46
2018-07-28T04:18:03.799Z,66.46
2018-07-28T04:19:03.741Z,66.16
2018-07-28T04:20:03.723Z,66.36
2018-07-28T04:21:03.692Z,65.88
2018-07-28T04:22:03.639Z,66.46
2018-07-28T04:23:03.607Z,66.36
2018-07-28T04:24:03.573Z,66.16
2018-07-28T04:25:03.787Z,66.36
2018-07-28T04:26:03.508Z,66.55
2018-07-28T04:27:03.474Z,66.74
2018-07-28T04:28:03.451Z,66.93
2018-07-28T04:29:03.414Z,66.93
2018-07-28T04:30:03.376Z,67.03
2018-07-28T04:31:03.343Z,66.93
2018-07-28T04:32:03.339Z,66.90
2018-07-28T04:33:03.272Z,66.61
2018-07-28T04:34:03.245Z,66.74
2018-07-28T04:35:03.221Z,66.93
2018-07-28T04:36:03.185Z,66.93
2018-07-28T04:37:03.164Z,66.80
2018-07-28T04:38:03.109Z,67.47
2018-07-28T04:39:03.074Z,67.29
2018-07-28T04:40:03.057Z,67.57
2018-07-28T04:41:03.012Z,67.76
2018-07-28T04:42:03.028Z,67.09
2018-07-28T04:43:02.963Z,67.19
2018-07-28T04:44:02.975Z,67.57
2018-07-28T04:45:02.881Z,67.76
2018-07-28T04:46:02.849Z,67.47
2018-07-28T04:47:02.818Z,67.47
2018-07-28T04:48:02.778Z,67.38
2018-07-28T04:49:02.771Z,67.86
2018-07-28T04:50:02.714Z,67.86
2018-07-28T04:51:02.749Z,67.86
2018-07-28T04:52:02.654Z,68.34
2018-07-28T04:53:02.617Z,68.34
2018-07-28T04:54:02.581Z,68.73
2018-07-28T04:55:02.546Z,68.44
2018-07-28T04:56:02.529Z,68.24
2018-07-28T04:57:02.647Z,68.34
2018-07-28T04:58:02.460Z,68.34
2018-07-28T04:59:02.420Z,68.15
2018-07-28T05:00:02.387Z,68.15
2018-07-28T05:01:02.352Z,68.44
2018-07-28T05:02:02.320Z,68.05
2018-07-28T05:03:02.643Z,68.12
2018-07-28T05:04:02.261Z,68.63
2018-07-28T05:05:02.228Z,68.40
2018-07-28T05:06:02.185Z,68.53
2018-07-28T05:07:02.152Z,68.44
2018-07-28T05:08:02.156Z,68.05
2018-07-28T05:09:02.290Z,68.59
2018-07-28T05:10:02.057Z,68.63
2018-07-28T05:11:02.025Z,68.44
2018-07-28T05:12:01.991Z,68.44
2018-07-28T05:13:01.951Z,68.59
2018-07-28T05:14:01.927Z,68.40
2018-07-28T05:15:01.894Z,68.79
2018-07-28T05:16:01.867Z,68.79
2018-07-28T05:17:01.819Z,68.88
2018-07-28T05:18:01.785Z,68.98
2018-07-28T05:19:01.756Z,68.59
2018-07-28T05:20:01.723Z,68.53
2018-07-28T05:21:01.719Z,68.69
2018-07-28T05:22:01.651Z,68.88
2018-07-28T05:23:01.620Z,68.79
2018-07-28T05:24:01.593Z,68.69
2018-07-28T05:25:01.552Z,68.69
2018-07-28T05:26:01.516Z,68.69
2018-07-28T05:27:01.485Z,68.69
2018-07-28T05:28:01.461Z,68.88
2018-07-28T05:29:01.419Z,68.79
2018-07-28T05:30:01.399Z,68.69
2018-07-28T05:31:01.357Z,68.40
2018-07-28T05:32:01.323Z,68.88
2018-07-28T05:33:01.288Z,68.59
2018-07-28T05:34:01.254Z,68.50
2018-07-28T05:35:01.220Z,68.69
2018-07-28T05:36:01.388Z,68.40
2018-07-28T05:37:01.177Z,68.91
2018-07-28T05:38:01.119Z,68.88
2018-07-28T05:39:01.169Z,68.88
2018-07-28T05:40:01.056Z,68.79
2018-07-28T05:41:01.021Z,69.07
2018-07-28T05:42:00.991Z,69.46
2018-07-28T05:43:00.972Z,69.26
2018-07-28T05:44:00.921Z,69.56
2018-07-28T05:45:00.893Z,69.26
2018-07-28T05:46:00.858Z,69.46
2018-07-28T05:47:00.821Z,69.17
2018-07-28T05:48:00.789Z,69.26
2018-07-28T05:49:00.756Z,69.26
2018-07-28T05:50:00.753Z,69.74
2018-07-28T05:51:00.698Z,69.07
2018-07-28T05:52:00.666Z,69.17
2018-07-28T05:53:00.622Z,69.17
2018-07-28T05:54:00.587Z,69.56
2018-07-28T05:55:00.554Z,69.56
2018-07-28T05:56:00.525Z,69.36
2018-07-28T05:57:00.494Z,69.46
2018-07-28T05:58:00.655Z,69.56
2018-07-28T05:59:00.426Z,69.74
2018-07-28T06:00:00.399Z,69.65
2018-07-28T06:01:00.356Z,69.65
2018-07-28T06:02:00.325Z,69.52
2018-07-28T06:03:00.292Z,70.29
2018-07-28T06:05:00.219Z,70.29
2018-07-28T06:06:00.187Z,70.38
2018-07-28T06:07:00.161Z,70.38
2018-07-28T06:08:00.120Z,70.29
2018-07-28T06:09:00.091Z,70.19
2018-07-28T06:10:00.054Z,70.19
2018-07-28T06:11:00.020Z,70.48
2018-07-28T06:11:59.988Z,69.90
2018-07-28T06:12:59.953Z,70.57
2018-07-28T06:14:00.070Z,70.38
2018-07-28T06:14:59.889Z,70.57
2018-07-28T06:15:59.851Z,70.29
2018-07-28T06:16:59.827Z,70.29
2018-07-28T06:17:59.793Z,70.51
2018-07-28T06:18:59.754Z,70.42
2018-07-28T06:19:59.728Z,70.23
2018-07-28T06:20:59.687Z,69.93
2018-07-28T06:21:59.672Z,69.93
2018-07-28T06:22:59.615Z,69.93
2018-07-28T06:23:59.591Z,70.13
2018-07-28T06:24:59.553Z,70.32
2018-07-28T06:25:59.537Z,70.42
2018-07-28T06:26:59.484Z,70.29
2018-07-28T06:27:59.449Z,70.19
2018-07-28T06:28:59.417Z,70.51
2018-07-28T06:29:59.397Z,70.09
2018-07-28T06:30:59.554Z,70.00
2018-07-28T06:31:59.343Z,70.29
2018-07-28T06:32:59.283Z,69.90
2018-07-28T06:33:59.248Z,70.19
2018-07-28T06:34:59.231Z,70.19
2018-07-28T06:35:59.184Z,70.48
2018-07-28T06:36:59.158Z,70.29
2018-07-28T06:37:59.118Z,70.19
2018-07-28T06:38:59.083Z,70.09
2018-07-28T06:39:59.057Z,70.29
2018-07-28T06:40:59.019Z,70.19
2018-07-28T06:41:58.985Z,70.00
2018-07-28T06:42:58.954Z,70.29
2018-07-28T06:43:58.912Z,70.29
2018-07-28T06:44:58.880Z,70.29
2018-07-28T06:45:58.855Z,70.38
2018-07-28T06:46:59.011Z,70.29
2018-07-28T06:47:58.781Z,70.29
2018-07-28T06:48:58.748Z,70.29
2018-07-28T06:49:58.711Z,70.29
2018-07-28T06:50:58.697Z,70.67
2018-07-28T06:51:58.644Z,71.05
2018-07-28T06:52:58.614Z,71.15
2018-07-28T06:53:58.591Z,70.96
2018-07-28T06:54:58.542Z,70.96
2018-07-28T06:55:58.511Z,71.15
2018-07-28T06:56:58.481Z,71.15
2018-07-28T06:57:58.498Z,70.76
2018-07-28T06:58:58.407Z,70.76
2018-07-28T06:59:58.390Z,70.57
2018-07-28T07:00:58.342Z,70.29
2018-07-28T07:01:58.309Z,70.57
2018-07-28T07:02:58.280Z,70.57
2018-07-28T07:03:58.448Z,70.48
2018-07-28T07:04:58.214Z,70.48
2018-07-28T07:05:58.189Z,70.86
2018-07-28T07:06:58.181Z,70.96
2018-07-28T07:07:58.110Z,70.86
2018-07-28T07:08:58.073Z,70.76
2018-07-28T07:09:58.252Z,70.96
2018-07-28T07:10:58.007Z,70.86
2018-07-28T07:11:57.971Z,70.48
2018-07-28T07:12:57.944Z,70.86
2018-07-28T07:13:57.901Z,70.48
2018-07-28T07:14:57.875Z,70.29
2018-07-28T07:15:57.896Z,70.19
2018-07-28T07:16:57.812Z,71.25
2018-07-28T07:17:57.767Z,70.76
2018-07-28T07:18:57.737Z,71.53
2018-07-28T07:19:57.700Z,71.25
2018-07-28T07:20:57.676Z,71.82
2018-07-28T07:21:57.647Z,71.92
2018-07-28T07:22:57.607Z,71.72
2018-07-28T07:23:57.570Z,71.82
2018-07-28T07:24:57.534Z,71.82
2018-07-28T07:25:57.699Z,71.72
2018-07-28T07:26:57.480Z,71.34
2018-07-28T07:27:57.432Z,71.34
2018-07-28T07:28:57.399Z,71.72
2018-07-28T07:29:57.364Z,72.11
2018-07-28T07:30:57.332Z,72.30
2018-07-28T07:31:57.707Z,72.30
2018-07-28T07:32:57.265Z,72.11
2018-07-28T07:33:57.341Z,72.01
2018-07-28T07:34:57.195Z,72.59
2018-07-28T07:35:57.167Z,72.01
2018-07-28T07:36:57.125Z,72.11
2018-07-28T07:37:57.294Z,72.59
2018-07-28T07:38:57.058Z,72.30
2018-07-28T07:39:57.038Z,72.49
2018-07-28T07:40:56.999Z,72.01
2018-07-28T07:41:56.956Z,72.30
2018-07-28T07:42:56.926Z,72.20
2018-07-28T07:43:56.890Z,72.78
2018-07-28T07:44:56.858Z,72.88
2018-07-28T07:45:56.823Z,72.68
2018-07-28T07:46:56.792Z,72.97
2018-07-28T07:47:56.759Z,72.49
2018-07-28T07:48:56.792Z,71.82
2018-07-28T07:49:56.693Z,71.92
2018-07-28T07:50:56.658Z,72.20
2018-07-28T07:51:56.625Z,72.11
2018-07-28T07:52:56.589Z,72.11
2018-07-28T07:53:56.738Z,72.59
2018-07-28T07:54:56.522Z,72.88
2018-07-28T07:55:56.491Z,72.78
2018-07-28T07:56:56.456Z,73.41
2018-07-28T07:57:56.420Z,73.70
2018-07-28T07:58:56.381Z,73.61
2018-07-28T07:59:56.731Z,73.61
2018-07-28T08:00:56.317Z,73.41
2018-07-28T08:01:56.287Z,73.61
2018-07-28T08:02:56.245Z,73.99
2018-07-28T08:03:56.211Z,73.83
2018-07-28T08:04:56.183Z,73.99
2018-07-28T08:05:56.502Z,73.90
2018-07-28T08:06:56.114Z,73.83
2018-07-28T08:07:56.086Z,73.74
2018-07-28T08:08:56.045Z,73.90
2018-07-28T08:09:56.009Z,74.31
2018-07-28T08:10:55.974Z,73.83
2018-07-28T08:11:55.939Z,74.02
2018-07-28T08:12:55.915Z,73.65
2018-07-28T08:13:55.879Z,73.74
2018-07-28T08:14:55.842Z,73.93
2018-07-28T08:15:55.810Z,73.55
2018-07-28T08:16:55.772Z,73.35
2018-07-28T08:17:55.740Z,73.35
2018-07-28T08:18:55.789Z,73.74
2018-07-28T08:19:55.673Z,73.83
2018-07-28T08:20:55.648Z,73.65
2018-07-28T08:21:55.603Z,73.83
2018-07-28T08:22:55.771Z,73.41
2018-07-28T08:23:55.534Z,73.61
2018-07-28T08:24:55.501Z,73.22
2018-07-28T08:25:55.472Z,73.03
2018-07-28T08:26:55.433Z,73.03
2018-07-28T08:27:55.405Z,73.32
2018-07-28T08:28:55.364Z,72.55
2018-07-28T08:29:55.330Z,73.03
2018-07-28T08:30:55.295Z,73.22
2018-07-28T08:31:55.261Z,73.03
2018-07-28T08:32:55.231Z,73.41
2018-07-28T08:33:55.192Z,73.61
2018-07-28T08:34:55.162Z,73.41
2018-07-28T08:35:55.128Z,73.32
2018-07-28T08:36:55.093Z,73.61
2018-07-28T08:37:55.098Z,73.61
2018-07-28T08:38:55.028Z,73.51
2018-07-28T08:39:55.040Z,73.61
2018-07-28T08:40:54.956Z,73.99
2018-07-28T08:41:54.936Z,73.99
2018-07-28T08:42:54.898Z,73.80
2018-07-28T08:43:54.876Z,73.70
2018-07-28T08:44:54.831Z,74.08
2018-07-28T08:45:54.789Z,74.08
2018-07-28T08:46:54.754Z,73.99
2018-07-28T08:47:54.720Z,74.08
2018-07-28T08:48:54.707Z,74.85
2018-07-28T08:49:54.649Z,74.37
2018-07-28T08:50:54.617Z,73.70
2018-07-28T08:51:54.583Z,73.70
2018-07-28T08:52:54.583Z,73.70
2018-07-28T08:53:54.515Z,74.66
2018-07-28T08:54:54.504Z,74.76
2018-07-28T08:55:54.454Z,75.62
2018-07-28T08:56:54.411Z,75.71
2018-07-28T08:57:54.380Z,76.00
2018-07-28T08:58:54.342Z,76.39
2018-07-28T08:59:54.511Z,76.39
2018-07-28T09:00:54.279Z,75.71
2018-07-28T09:01:54.243Z,75.71
2018-07-28T09:02:54.216Z,75.90
2018-07-28T09:03:54.173Z,75.52
2018-07-28T09:04:54.148Z,75.62
2018-07-28T09:05:54.113Z,75.81
2018-07-28T09:06:54.069Z,75.90
2018-07-28T09:07:54.037Z,75.71
2018-07-28T09:08:54.005Z,75.62
2018-07-28T09:09:53.969Z,75.62
2018-07-28T09:10:54.133Z,75.71
2018-07-28T09:11:53.899Z,75.33
2018-07-28T09:12:53.866Z,75.04
2018-07-28T09:13:53.830Z,75.52
2018-07-28T09:14:53.797Z,75.52
2018-07-28T09:15:53.768Z,75.71
2018-07-28T09:16:53.729Z,75.52
2018-07-28T09:17:53.716Z,75.43
2018-07-28T09:18:53.663Z,76.19
2018-07-28T09:19:53.625Z,76.29
2018-07-28T09:20:53.593Z,76.39
2018-07-28T09:21:53.557Z,76.10
2018-07-28T09:22:53.522Z,75.62
2018-07-28T09:23:53.492Z,75.81
2018-07-28T09:24:53.457Z,75.71
2018-07-28T09:25:53.425Z,76.48
2018-07-28T09:26:53.792Z,76.39
2018-07-28T09:27:53.352Z,77.25
2018-07-28T09:28:53.317Z,77.02
2018-07-28T09:29:53.285Z,76.35
2018-07-28T09:30:53.251Z,76.25
2018-07-28T09:31:53.218Z,76.19
2018-07-28T09:32:53.232Z,76.19
2018-07-28T09:33:53.159Z,76.35
2018-07-28T09:34:53.112Z,76.92
2018-07-28T09:35:53.085Z,76.92
2018-07-28T09:36:53.054Z,77.11
2018-07-28T09:37:53.010Z,77.02
2018-07-28T09:38:52.987Z,77.02
2018-07-28T09:39:52.943Z,76.82
2018-07-28T09:40:52.910Z,77.02
2018-07-28T09:41:52.871Z,76.15
2018-07-28T09:42:52.847Z,76.25
2018-07-28T09:43:52.805Z,76.35
2018-07-28T09:44:52.831Z,76.15
2018-07-28T09:45:52.745Z,76.82
2018-07-28T09:46:52.744Z,77.11
2018-07-28T09:47:52.668Z,76.73
2018-07-28T09:48:52.640Z,77.31
2018-07-28T09:49:52.599Z,77.59
2018-07-28T09:50:52.569Z,77.59
2018-07-28T09:51:52.534Z,78.27
2018-07-28T09:52:52.496Z,78.17
2018-07-28T09:53:52.613Z,78.84
2018-07-28T09:54:52.431Z,78.93
2018-07-28T09:55:52.398Z,78.80
2018-07-28T09:56:52.362Z,79.08
2018-07-28T09:57:52.333Z,79.13
2018-07-28T09:58:52.304Z,79.41
2018-07-28T09:59:52.313Z,79.13
2018-07-28T10:00:52.226Z,79.13
2018-07-28T10:01:52.197Z,79.03
2018-07-28T10:02:52.163Z,79.70
2018-07-28T10:03:52.126Z,79.13
2018-07-28T10:04:52.243Z,79.41
2018-07-28T10:05:52.054Z,79.22
2018-07-28T10:06:52.019Z,79.99
2018-07-28T10:07:51.988Z,79.89
2018-07-28T10:08:51.957Z,80.08
2018-07-28T10:09:51.930Z,79.70
2018-07-28T10:10:51.888Z,79.70
2018-07-28T10:11:51.862Z,79.99
2018-07-28T10:12:51.813Z,79.70
2018-07-28T10:13:51.785Z,79.70
2018-07-28T10:14:52.047Z,80.37
2018-07-28T10:15:51.713Z,79.99
2018-07-28T10:16:51.678Z,79.80
2018-07-28T10:17:51.640Z,79.93
2018-07-28T10:18:51.615Z,80.03
2018-07-28T10:19:51.585Z,79.64
2018-07-28T10:20:51.543Z,79.55
2018-07-28T10:21:51.510Z,79.07
2018-07-28T10:22:51.559Z,79.26
2018-07-28T10:23:51.451Z,79.26
2018-07-28T10:24:51.407Z,79.45
2018-07-28T10:25:51.425Z,79.36
2018-07-28T10:26:51.337Z,79.07
2018-07-28T10:27:51.312Z,79.59
2018-07-28T10:28:51.270Z,78.63
2018-07-28T10:29:51.242Z,78.82
2018-07-28T10:30:51.202Z,79.30
2018-07-28T10:31:51.166Z,79.39
2018-07-28T10:32:51.133Z,79.59
2018-07-28T10:33:51.102Z,78.72
2018-07-28T10:34:51.072Z,78.92
2018-07-28T10:35:51.033Z,78.72
2018-07-28T10:36:51.001Z,78.86
2018-07-28T10:37:50.969Z,78.92
2018-07-28T10:38:50.929Z,79.24
2018-07-28T10:39:50.905Z,78.77
2018-07-28T10:40:50.866Z,78.86
2018-07-28T10:41:50.835Z,78.77
2018-07-28T10:42:50.796Z,78.86
2018-07-28T10:43:50.770Z,78.96
2018-07-28T10:44:50.733Z,78.96
2018-07-28T10:45:50.702Z,78.70
2018-07-28T10:46:50.668Z,78.47
2018-07-28T10:47:50.629Z,78.32
2018-07-28T10:48:50.597Z,78.32
2018-07-28T10:49:50.560Z,78.13
2018-07-28T10:50:50.732Z,78.52
2018-07-28T10:51:50.550Z,78.23
2018-07-28T10:52:50.469Z,78.23
2018-07-28T10:53:50.427Z,78.52
2018-07-28T10:54:50.396Z,78.52
2018-07-28T10:55:50.361Z,77.56
2018-07-28T10:56:50.432Z,78.36
2018-07-28T10:57:50.295Z,77.69
2018-07-28T10:58:50.269Z,77.88
2018-07-28T10:59:50.232Z,78.08
2018-07-28T11:00:50.195Z,77.88
2018-07-28T11:01:50.164Z,78.08
2018-07-28T11:02:50.131Z,78.17
2018-07-28T11:03:50.095Z,77.59
2018-07-28T11:04:50.091Z,77.21
2018-07-28T11:05:50.059Z,77.34
2018-07-28T11:06:49.998Z,77.31
2018-07-28T11:07:49.962Z,77.34
2018-07-28T11:08:49.932Z,77.25
2018-07-28T11:09:49.895Z,76.57
2018-07-28T11:10:49.867Z,76.29
2018-07-28T11:11:49.838Z,75.81
2018-07-28T11:12:49.800Z,75.81
2018-07-28T11:13:49.777Z,76.19
2018-07-28T11:14:49.734Z,75.81
2018-07-28T11:15:49.708Z,75.81
2018-07-28T11:16:49.667Z,75.94
2018-07-28T11:17:49.637Z,76.14
2018-07-28T11:18:49.616Z,75.37
2018-07-28T11:19:49.567Z,75.56
2018-07-28T11:20:49.540Z,75.17
2018-07-28T11:21:49.505Z,74.30
2018-07-28T11:22:49.722Z,74.40
2018-07-28T11:23:49.439Z,74.11
2018-07-28T11:24:49.404Z,74.25
2018-07-28T11:25:49.390Z,73.00
2018-07-28T11:26:49.364Z,73.19
2018-07-28T11:27:49.312Z,73.47
2018-07-28T11:28:49.434Z,73.47
2018-07-28T11:29:49.248Z,73.00
2018-07-28T11:30:49.215Z,72.90
2018-07-28T11:31:49.275Z,72.71
2018-07-28T11:32:49.155Z,72.65
2018-07-28T11:33:49.120Z,72.17
2018-07-28T11:34:49.083Z,72.55
2018-07-28T11:35:49.057Z,72.94
2018-07-28T11:36:49.016Z,72.74
2018-07-28T11:37:49.004Z,72.17
2018-07-28T11:38:48.952Z,71.49
2018-07-28T11:39:48.935Z,71.97
2018-07-28T11:40:48.892Z,71.40
2018-07-28T11:41:48.857Z,70.18
2018-07-28T11:42:48.828Z,69.02
2018-07-28T11:43:48.792Z,68.74
2018-07-28T11:44:48.763Z,67.77
2018-07-28T11:45:48.742Z,67.39
2018-07-28T11:46:48.699Z,67.19
2018-07-28T11:47:48.674Z,67.10
2018-07-28T11:48:48.636Z,66.42
2018-07-28T11:49:48.605Z,66.33
2018-07-28T11:50:48.574Z,65.85
2018-07-28T11:51:48.543Z,65.56
2018-07-28T11:52:48.508Z,65.27
2018-07-28T11:53:48.475Z,64.82
2018-07-28T11:54:48.495Z,64.73
2018-07-28T11:55:48.413Z,64.82
2018-07-28T11:56:48.380Z,64.53
2018-07-28T11:57:48.355Z,63.85
2018-07-28T11:58:48.328Z,63.76
2018-07-28T11:59:48.439Z,63.38
2018-07-28T12:00:48.259Z,63.12
2018-07-28T12:01:48.317Z,62.93
2018-07-28T12:02:48.197Z,62.15
2018-07-28T12:03:48.158Z,62.25
2018-07-28T12:04:48.131Z,62.15
2018-07-28T12:05:48.127Z,61.68
2018-07-28T12:06:48.077Z,61.77
2018-07-28T12:07:48.041Z,61.96
2018-07-28T12:08:48.001Z,61.68
2018-07-28T12:09:47.980Z,61.38
2018-07-28T12:10:47.951Z,61.48
2018-07-28T12:11:47.917Z,61.19
2018-07-28T12:12:47.879Z,61.00
2018-07-28T12:13:47.849Z,60.32
2018-07-28T12:14:47.819Z,58.68
2018-07-28T12:15:47.795Z,55.51
2018-07-28T12:16:47.791Z,51.90
2018-07-28T12:17:47.724Z,49.24
2018-07-28T12:18:47.707Z,47.55
2018-07-28T12:19:47.665Z,46.01
2018-07-28T12:20:47.632Z,45.75
2018-07-28T12:21:47.603Z,44.89
2018-07-28T12:22:47.582Z,44.60
2018-07-28T12:23:47.542Z,44.48
2018-07-28T12:24:47.514Z,44.51
2018-07-28T12:25:47.880Z,44.09
2018-07-28T12:26:47.450Z,43.51
2018-07-28T12:27:47.424Z,43.73
2018-07-28T12:28:47.397Z,43.51
2018-07-28T12:29:47.380Z,43.22
2018-07-28T12:30:47.335Z,43.05
2018-07-28T12:31:47.457Z,42.85
2018-07-28T12:32:47.280Z,43.41
2018-07-28T12:33:47.260Z,43.30
2018-07-28T12:34:47.289Z,44.46
2018-07-28T12:35:47.198Z,45.31
2018-07-28T12:36:47.168Z,45.89
2018-07-28T12:37:47.347Z,45.39
2018-07-28T12:38:47.152Z,45.20
2018-07-28T12:39:47.089Z,45.31
2018-07-28T12:40:47.072Z,44.64
2018-07-28T12:41:47.038Z,43.98
2018-07-28T12:42:47.218Z,43.68
2018-07-28T12:43:46.985Z,43.32
2018-07-28T12:44:46.968Z,43.41
2018-07-28T12:45:46.955Z,43.22
2018-07-28T12:46:46.902Z,42.64
2018-07-28T12:47:46.895Z,42.08
2018-07-28T12:48:46.868Z,41.69
2018-07-28T12:49:46.848Z,41.88
2018-07-28T12:50:46.801Z,41.39
2018-07-28T12:51:46.793Z,40.66
2018-07-28T12:52:46.762Z,39.12
2018-07-28T12:53:46.755Z,38.18
2018-07-28T12:54:46.691Z,37.71